Time;durP1;ratioP1;P1;durP2;ratioP2;P2;SDS_P1;SDS_P2;PMS_P1;PMS_P2;Temp;Humidity;BMP_temperature;BMP_pressure;BME280_temperature;BME280_humidity;BME280_pressure;Samples;Min_cycle;Max_cycle;Signal;HPM_P1;HPM_P2
2023/04/25 00:01:15;;;;;;;1.23;1.23;;;;;;;13.51;100.00;94720.56;5071050;28;21016;-62
2023/04/25 00:03:43;;;;;;;1.50;0.50;;;;;;;13.67;100.00;94730.53;5071589;28;20560;-62
2023/04/25 00:06:12;;;;;;;0.50;0.30;;;;;;;13.98;100.00;94722.59;5071090;28;20437;-62
2023/04/25 00:08:40;;;;;;;0.40;0.30;;;;;;;13.93;100.00;94717.41;5071600;28;20544;-62
2023/04/25 00:11:09;;;;;;;0.60;0.30;;;;;;;14.06;100.00;94713.88;5071664;28;20426;-62
2023/04/25 00:13:37;;;;;;;0.40;0.30;;;;;;;14.24;100.00;94728.06;5071304;28;20819;-62
2023/04/25 00:16:06;;;;;;;0.50;0.50;;;;;;;13.35;100.00;94678.31;5070864;28;20539;-62
2023/04/25 00:18:36;;;;;;;0.77;0.50;;;;;;;13.81;100.00;94704.63;5071101;28;20458;-62
2023/04/25 00:21:06;;;;;;;0.30;0.30;;;;;;;13.84;100.00;94716.53;5071025;28;20480;-62
2023/04/25 00:23:36;;;;;;;0.40;0.30;;;;;;;13.69;100.00;94719.56;5071115;28;20449;-63
2023/04/25 00:26:04;;;;;;;0.30;0.20;;;;;;;14.01;100.00;94714.75;5044369;28;20546;-63
2023/04/25 00:28:32;;;;;;;0.30;0.20;;;;;;;13.44;100.00;94714.84;5070963;28;20802;-62
2023/04/25 00:31:01;;;;;;;0.50;0.47;;;;;;;13.04;100.00;94708.50;5070285;28;20433;-63
2023/04/25 00:33:29;;;;;;;0.40;0.30;;;;;;;13.04;100.00;94713.84;5070025;28;20498;-63
2023/04/25 00:35:59;;;;;;;0.30;0.20;;;;;;;12.86;100.00;94698.78;5070867;28;20573;-63
2023/04/25 00:38:27;;;;;;;0.40;0.30;;;;;;;12.45;100.00;94693.50;5070901;28;20448;-63
2023/04/25 00:40:55;;;;;;;0.40;0.30;;;;;;;13.01;100.00;94701.13;5073123;28;20496;-63
2023/04/25 00:43:25;;;;;;;0.40;0.20;;;;;;;13.34;100.00;94690.03;5074213;28;20440;-63
2023/04/25 00:45:54;;;;;;;0.40;0.20;;;;;;;12.77;100.00;94687.28;5074443;28;20484;-63
2023/04/25 00:48:23;;;;;;;0.37;0.30;;;;;;;12.40;100.00;94685.63;5074044;28;20445;-63
2023/04/25 00:50:54;;;;;;;0.30;0.20;;;;;;;13.07;100.00;94698.09;5074833;28;20429;-63
2023/04/25 00:53:25;;;;;;;0.40;0.30;;;;;;;13.50;100.00;94684.34;5074406;28;20430;-63
2023/04/25 00:55:54;;;;;;;0.30;0.20;;;;;;;13.51;100.00;94677.94;5074007;28;20476;-63
2023/04/25 00:58:23;;;;;;;0.30;0.20;;;;;;;13.82;100.00;94662.78;5073875;28;20437;-63
2023/04/25 01:00:53;;;;;;;0.50;0.30;;;;;;;14.02;100.00;94676.38;5074293;28;20481;-63
2023/04/25 01:03:21;;;;;;;0.40;0.30;;;;;;;14.07;100.00;94683.44;5074129;28;20473;-63
2023/04/25 01:05:51;;;;;;;0.30;0.20;;;;;;;14.02;100.00;94681.72;5074325;28;20434;-62
2023/04/25 01:08:25;;;;;;;0.30;0.20;;;;;;;13.48;100.00;94674.03;5049154;28;20857;-62
2023/04/25 01:10:54;;;;;;;0.30;0.20;;;;;;;13.61;100.00;94675.03;5073961;28;20477;-62
2023/04/25 01:13:22;;;;;;;0.30;0.20;;;;;;;13.72;100.00;94669.16;5074527;28;20481;-62
2023/04/25 01:15:50;;;;;;;0.30;0.20;;;;;;;13.38;100.00;94663.63;5073550;28;20469;-62
2023/04/25 01:18:20;;;;;;;0.30;0.20;;;;;;;13.12;100.00;94666.06;5073974;28;20441;-62
2023/04/25 01:20:51;;;;;;;0.60;0.43;;;;;;;12.93;100.00;94660.06;5073887;28;20817;-62
2023/04/25 01:23:22;;;;;;;0.40;0.40;;;;;;;13.05;100.00;94660.34;5073938;28;21023;-62
2023/04/25 01:25:50;;;;;;;0.33;0.23;;;;;;;13.50;100.00;94663.84;5073698;28;20556;-62
2023/04/25 01:28:19;;;;;;;0.30;0.20;;;;;;;13.76;100.00;94658.69;5073725;28;20893;-62
2023/04/25 01:30:48;;;;;;;0.30;0.20;;;;;;;14.00;100.00;94654.59;5074005;28;20438;-62
2023/04/25 01:33:17;;;;;;;0.30;0.20;;;;;;;14.06;100.00;94657.13;5073983;28;20849;-62
2023/04/25 01:35:45;;;;;;;0.30;0.20;;;;;;;13.70;100.00;94655.38;5072966;28;20481;-62
2023/04/25 01:38:13;;;;;;;0.40;0.30;;;;;;;13.19;100.00;94645.16;5073233;28;20464;-62
2023/04/25 01:40:46;;;;;;;1.27;0.30;;;;;;;13.43;100.00;94644.84;5074046;28;20442;-62
2023/04/25 01:43:14;;;;;;;0.30;0.20;;;;;;;13.21;100.00;94653.59;5073697;28;20438;-62
2023/04/25 01:45:43;;;;;;;0.30;0.20;;;;;;;13.34;100.00;94651.97;5073770;28;20937;-62
2023/04/25 01:48:13;;;;;;;1.07;0.30;;;;;;;13.05;100.00;94635.59;5073150;28;20442;-62
2023/04/25 01:50:41;;;;;;;0.40;0.40;;;;;;;13.44;100.00;94649.06;5072965;28;20529;-62
2023/04/25 01:53:11;;;;;;;0.40;0.30;;;;;;;13.48;100.00;94643.94;5072548;28;20465;-62
2023/04/25 01:55:39;;;;;;;0.37;0.30;;;;;;;13.32;100.00;94624.88;5073139;28;20603;-62
2023/04/25 01:58:12;;;;;;;0.40;0.30;;;;;;;13.53;100.00;94638.50;5072593;28;20434;-62
2023/04/25 02:00:41;;;;;;;0.73;0.30;;;;;;;13.63;100.00;94628.38;5072985;28;20908;-62
2023/04/25 02:03:09;;;;;;;0.30;0.30;;;;;;;13.69;100.00;94632.47;5072799;28;20438;-62
2023/04/25 02:05:39;;;;;;;0.30;0.20;;;;;;;13.73;100.00;94625.47;5073039;28;20847;-62
2023/04/25 02:08:09;;;;;;;0.30;0.30;;;;;;;13.91;100.00;94624.44;5072632;28;20525;-62
2023/04/25 02:10:37;;;;;;;20.53;0.60;;;;;;;13.60;100.00;94623.66;5072488;28;20473;-62
2023/04/25 02:13:06;;;;;;;0.83;0.40;;;;;;;13.27;100.00;94630.31;5073017;28;20469;-62
2023/04/25 02:15:35;;;;;;;0.40;0.30;;;;;;;13.44;100.00;94603.03;5072424;28;20465;-61
2023/04/25 02:18:06;;;;;;;0.40;0.30;;;;;;;13.58;100.00;94614.41;5072595;28;20437;-62
2023/04/25 02:20:35;;;;;;;0.50;0.40;;;;;;;13.64;100.00;94619.28;5072296;28;20437;-61
2023/04/25 02:23:03;;;;;;;0.70;0.70;;;;;;;13.39;100.00;94619.91;5072179;28;20438;-61
2023/04/25 02:25:32;;;;;;;0.40;0.40;;;;;;;13.83;100.00;94621.75;5072310;28;20477;-61
2023/04/25 02:28:00;;;;;;;0.37;0.30;;;;;;;13.90;100.00;94625.56;5072557;28;20525;-61
2023/04/25 02:30:28;;;;;;;0.40;0.30;;;;;;;13.95;100.00;94627.28;5072422;28;20438;-61
2023/04/25 02:32:58;;;;;;;0.30;0.20;;;;;;;13.87;100.00;94631.47;5072105;28;20469;-61
2023/04/25 02:35:26;;;;;;;0.30;0.20;;;;;;;13.76;100.00;94622.16;5072083;28;20433;-61
2023/04/25 02:37:55;;;;;;;0.40;0.30;;;;;;;13.41;100.00;94623.06;5072309;28;20536;-61
2023/04/25 02:40:23;;;;;;;0.50;0.50;;;;;;;13.46;100.00;94616.84;5072134;28;20461;-61
2023/04/25 02:42:51;;;;;;;0.30;0.20;;;;;;;13.91;100.00;94624.44;5072506;28;20434;-61
2023/04/25 02:45:20;;;;;;;0.40;0.30;;;;;;;13.56;100.00;94617.34;5072148;28;20426;-62
2023/04/25 02:47:48;;;;;;;0.30;0.20;;;;;;;13.33;100.00;94615.81;5072087;28;20698;-62
2023/04/25 02:50:18;;;;;;;0.40;0.40;;;;;;;13.49;100.00;94626.88;5072381;28;20437;-62
2023/04/25 02:52:46;;;;;;;0.40;0.30;;;;;;;13.53;100.00;94628.66;5071846;28;20445;-62
2023/04/25 02:55:15;;;;;;;0.30;0.30;;;;;;;13.64;100.00;94621.97;5071711;28;20765;-61
2023/04/25 02:57:43;;;;;;;0.30;0.30;;;;;;;13.69;100.00;94629.03;5070827;28;20489;-61
2023/04/25 03:00:14;;;;;;;0.40;0.40;;;;;;;13.27;100.00;94620.47;5071203;28;20521;-61
2023/04/25 03:02:42;;;;;;;0.60;0.40;;;;;;;13.23;100.00;94619.50;5070410;28;20443;-62
2023/04/25 03:05:11;;;;;;;0.30;0.30;;;;;;;13.38;100.00;94620.22;5070747;28;20437;-61
2023/04/25 03:07:40;;;;;;;0.30;0.20;;;;;;;13.31;100.00;94621.44;5071361;28;20448;-62
2023/04/25 03:10:09;;;;;;;0.40;0.20;;;;;;;13.16;100.00;94613.81;5071622;28;20444;-62
2023/04/25 03:12:38;;;;;;;0.30;0.30;;;;;;;13.42;100.00;94616.66;5071607;28;20441;-62
2023/04/25 03:15:07;;;;;;;0.30;0.20;;;;;;;13.63;100.00;94631.06;5071426;28;20997;-61
2023/04/25 03:17:35;;;;;;;0.30;0.20;;;;;;;13.56;100.00;94625.34;5070508;28;21080;-62
2023/04/25 03:20:05;;;;;;;0.30;0.20;;;;;;;13.60;100.00;94626.31;5070977;28;20437;-62
2023/04/25 03:22:33;;;;;;;0.30;0.23;;;;;;;13.16;100.00;94621.00;5070517;28;20490;-62
2023/04/25 03:25:03;;;;;;;0.50;0.37;;;;;;;12.39;100.00;94485.56;5070807;28;20479;-61
2023/04/25 03:27:32;;;;;;;0.30;0.20;;;;;;;13.52;100.00;94620.94;5070768;28;20433;-61
2023/04/25 03:30:00;;;;;;;0.40;0.30;;;;;;;13.80;100.00;94623.16;5071420;28;20449;-61
2023/04/25 03:32:28;;;;;;;0.30;0.20;;;;;;;13.56;100.00;94622.69;5071155;28;20441;-62
2023/04/25 03:34:57;;;;;;;0.30;0.30;;;;;;;13.54;100.00;94619.53;5071491;28;20460;-62
2023/04/25 03:37:25;;;;;;;0.40;0.37;;;;;;;13.47;100.00;94615.75;5071107;28;20559;-62
2023/04/25 03:39:53;;;;;;;0.30;0.20;;;;;;;13.72;100.00;94623.88;5071011;28;20477;-62
2023/04/25 03:42:23;;;;;;;0.33;0.20;;;;;;;13.47;100.00;94610.41;5071472;28;20517;-61
2023/04/25 03:44:52;;;;;;;0.87;0.37;;;;;;;13.85;100.00;94630.22;5071066;28;20561;-61
2023/04/25 03:47:21;;;;;;;0.40;0.30;;;;;;;13.69;100.00;94623.69;5071204;28;20442;-61
2023/04/25 03:49:51;;;;;;;0.50;0.37;;;;;;;13.36;100.00;94623.19;5070642;28;20449;-62
2023/04/25 03:52:20;;;;;;;0.40;0.30;;;;;;;13.58;100.00;94607.22;5071230;28;20438;-61
2023/04/25 03:54:48;;;;;;;0.30;0.20;;;;;;;13.66;100.00;94617.09;5071066;28;20524;-61
2023/04/25 03:57:16;;;;;;;0.40;0.40;;;;;;;13.38;100.00;94631.69;5071050;28;20535;-61
2023/04/25 03:59:46;;;;;;;0.30;0.20;;;;;;;13.42;100.00;94618.53;5070829;28;20974;-61
2023/04/25 04:02:14;;;;;;;0.97;0.30;;;;;;;13.62;100.00;94613.50;5071004;28;21015;-61
2023/04/25 04:04:43;;;;;;;0.40;0.30;;;;;;;13.74;100.00;94624.38;5070320;28;20437;-61
2023/04/25 04:07:12;;;;;;;0.30;0.20;;;;;;;13.91;100.00;94623.69;5071434;28;20438;-62
2023/04/25 04:09:41;;;;;;;0.30;0.20;;;;;;;13.52;100.00;94620.94;5071214;28;20434;-61
2023/04/25 04:12:09;;;;;;;0.40;0.30;;;;;;;13.22;100.00;94622.47;5071338;28;20860;-61
2023/04/25 04:14:38;;;;;;;0.50;0.40;;;;;;;13.07;100.00;94573.06;5071001;28;20808;-60
2023/04/25 04:17:07;;;;;;;0.40;0.30;;;;;;;13.75;100.00;94625.94;5074763;28;20941;-61
2023/04/25 04:19:36;;;;;;;0.40;0.30;;;;;;;13.87;100.00;94625.38;5075064;28;20437;-61
2023/04/25 04:22:04;;;;;;;0.30;0.20;;;;;;;13.71;100.00;94630.28;5074594;28;20437;-61
2023/04/25 04:24:32;;;;;;;0.40;0.33;;;;;;;13.61;100.00;94627.13;5074756;28;20484;-60
2023/04/25 04:27:00;;;;;;;0.30;0.20;;;;;;;13.39;100.00;94580.00;5074257;28;20444;-60
2023/04/25 04:29:29;;;;;;;0.50;0.40;;;;;;;13.44;100.00;94629.66;5074594;28;20425;-60
2023/04/25 04:31:57;;;;;;;0.30;0.20;;;;;;;13.70;100.00;94639.38;5073514;28;20537;-59
2023/04/25 04:34:27;;;;;;;0.40;0.30;;;;;;;13.62;100.00;94637.47;5074526;28;20429;-59
2023/04/25 04:36:55;;;;;;;0.50;0.40;;;;;;;13.54;100.00;94629.41;5073641;28;20469;-59
2023/04/25 04:39:24;;;;;;;2.50;2.40;;;;;;;13.70;100.00;94636.72;5074006;28;20491;-59
2023/04/25 04:41:53;;;;;;;0.50;0.47;;;;;;;13.35;100.00;94597.66;5074111;28;20465;-59
2023/04/25 04:44:21;;;;;;;1.67;1.27;;;;;;;13.38;100.00;94637.00;5074209;28;20456;-59
2023/04/25 04:46:50;;;;;;;0.50;0.30;;;;;;;13.76;100.00;94638.16;5074228;28;20445;-59
2023/04/25 04:49:18;;;;;;;0.67;0.27;;;;;;;13.75;100.00;94633.94;5074741;28;20464;-60
2023/04/25 04:51:49;;;;;;;0.40;0.40;;;;;;;13.46;100.00;94622.16;5074201;28;20558;-59
2023/04/25 04:54:17;;;;;;;0.43;0.43;;;;;;;13.53;100.00;94607.34;5074794;28;20533;-60
2023/04/25 04:56:46;;;;;;;0.43;0.30;;;;;;;13.79;100.00;94620.78;5073941;28;20438;-59
2023/04/25 04:59:14;;;;;;;0.37;0.30;;;;;;;13.97;100.00;94625.91;5074345;28;20480;-59
2023/04/25 05:01:42;;;;;;;0.43;0.40;;;;;;;13.59;100.00;94613.31;5074321;28;20437;-60
2023/04/25 05:04:11;;;;;;;0.80;0.50;;;;;;;13.68;100.00;94619.47;5074178;28;20448;-60
2023/04/25 05:06:40;;;;;;;0.83;0.60;;;;;;;13.75;100.00;94615.28;5048008;28;20945;-59
2023/04/25 05:09:10;;;;;;;0.30;0.30;;;;;;;13.74;100.00;94608.38;5074184;28;20510;-60
2023/04/25 05:11:38;;;;;;;0.47;0.37;;;;;;;13.79;100.00;94621.56;5074581;28;20430;-59
2023/04/25 05:14:06;;;;;;;2.00;0.30;;;;;;;13.80;100.00;94607.16;5074122;28;20452;-59
2023/04/25 05:16:35;;;;;;;0.40;0.40;;;;;;;13.79;100.00;94612.78;5074229;28;20503;-59
2023/04/25 05:19:03;;;;;;;0.40;0.30;;;;;;;14.07;100.00;94611.50;5071222;28;20481;-59
2023/04/25 05:21:31;;;;;;;0.43;0.30;;;;;;;14.09;100.00;94603.97;5063795;28;20444;-60
2023/04/25 05:24:00;;;;;;;0.70;0.63;;;;;;;13.74;100.00;94610.25;5073990;28;20529;-60
2023/04/25 05:26:30;;;;;;;0.90;0.80;;;;;;;13.69;100.00;94603.19;5072854;28;20465;-60
2023/04/25 05:28:59;;;;;;;2.30;0.30;;;;;;;13.63;100.00;94599.09;5073334;28;20825;-60
2023/04/25 05:31:27;;;;;;;0.57;0.40;;;;;;;14.25;100.00;94601.69;5073811;28;20438;-60
2023/04/25 05:33:56;;;;;;;0.40;0.40;;;;;;;14.49;100.00;94591.47;5074147;28;20434;-61
2023/04/25 05:36:25;;;;;;;0.40;0.30;;;;;;;14.42;100.00;94593.81;5074249;28;20524;-61
2023/04/25 05:38:54;;;;;;;0.40;0.30;;;;;;;14.37;100.00;94588.63;5073819;28;20491;-61
2023/04/25 05:41:22;;;;;;;0.30;0.20;;;;;;;14.48;100.00;94589.88;5073443;28;20438;-62
2023/04/25 05:43:52;;;;;;;1.73;0.87;;;;;;;14.53;100.00;94584.41;5073376;28;20437;-62
2023/04/25 05:46:24;;;;;;;0.40;0.30;;;;;;;14.32;100.00;94592.19;5073697;28;20441;-62
2023/04/25 05:48:52;;;;;;;0.33;0.20;;;;;;;14.39;100.00;94589.09;5073406;28;20442;-62
2023/04/25 05:51:20;;;;;;;0.40;0.30;;;;;;;14.22;100.00;94597.00;5072139;28;20441;-63
2023/04/25 05:53:49;;;;;;;0.40;0.30;;;;;;;14.18;100.00;94596.03;5073168;28;20960;-62
2023/04/25 05:56:18;;;;;;;0.30;0.20;;;;;;;14.40;100.00;94599.44;5073393;28;20444;-63
2023/04/25 05:58:46;;;;;;;0.40;0.30;;;;;;;13.68;100.00;94598.97;5073185;28;20477;-63
2023/04/25 06:01:16;;;;;;;0.40;0.40;;;;;;;13.94;100.00;94588.41;5072585;28;20953;-62
2023/04/25 06:03:44;;;;;;;0.40;0.30;;;;;;;14.57;100.00;94593.38;5072916;28;20442;-62
2023/04/25 06:06:13;;;;;;;0.30;0.20;;;;;;;14.63;100.00;94584.09;5072539;28;20533;-63
2023/04/25 06:08:42;;;;;;;0.37;0.27;;;;;;;14.46;100.00;94555.53;5072835;28;20503;-63
2023/04/25 06:11:10;;;;;;;0.37;0.27;;;;;;;14.56;100.00;94591.78;5072562;28;20528;-62
2023/04/25 06:13:38;;;;;;;0.40;0.30;;;;;;;14.54;100.00;94589.44;5072768;28;20465;-63
2023/04/25 06:16:07;;;;;;;0.37;0.30;;;;;;;14.62;100.00;94582.53;5072880;28;20436;-63
2023/04/25 06:18:37;;;;;;;0.60;0.60;;;;;;;14.29;100.00;94598.13;5072738;28;20473;-63
2023/04/25 06:21:05;;;;;;;0.50;0.30;;;;;;;14.50;100.00;94595.69;5072518;28;20441;-63
2023/04/25 06:23:33;;;;;;;0.50;0.50;;;;;;;14.80;100.00;94592.13;5072923;28;20801;-62
2023/04/25 06:26:02;;;;;;;0.40;0.30;;;;;;;14.63;100.00;94514.75;5072370;28;20556;-63
2023/04/25 06:28:30;;;;;;;0.60;0.40;;;;;;;15.53;100.00;94593.06;5072275;28;20441;-63
2023/04/25 06:30:58;;;;;;;0.40;0.30;;;;;;;15.69;100.00;94583.44;5072711;28;20433;-63
2023/04/25 06:33:27;;;;;;;0.60;0.40;;;;;;;15.74;100.00;94585.94;5072494;28;20521;-64
2023/04/25 06:35:56;;;;;;;5.00;0.63;;;;;;;16.61;98.66;94584.47;5072592;28;20438;-66
2023/04/25 06:38:25;;;;;;;0.73;0.73;;;;;;;16.06;97.60;94574.69;5072130;28;20469;-66
2023/04/25 06:40:53;;;;;;;0.83;0.83;;;;;;;16.94;97.15;94585.34;5072384;28;20434;-66
2023/04/25 06:43:21;;;;;;;0.40;0.30;;;;;;;16.47;88.39;94552.56;5072129;28;20441;-66
2023/04/25 06:45:50;;;;;;;0.57;0.40;;;;;;;15.77;91.97;94579.97;5072213;28;20512;-67
2023/04/25 06:48:18;;;;;;;0.40;0.30;;;;;;;15.22;93.61;94574.53;5072253;28;20445;-67
2023/04/25 06:50:46;;;;;;;0.40;0.30;;;;;;;16.21;87.87;94573.34;5072083;28;21029;-66
2023/04/25 06:53:16;;;;;;;0.73;0.73;;;;;;;16.70;86.67;94567.25;5072464;28;20512;-66
2023/04/25 06:55:44;;;;;;;0.30;0.20;;;;;;;16.65;93.17;94574.69;5073568;28;20443;-66
2023/04/25 06:58:13;;;;;;;0.60;0.60;;;;;;;16.50;93.57;94576.81;5072342;28;20476;-65
2023/04/25 07:00:41;;;;;;;0.50;0.50;;;;;;;16.22;94.66;94573.00;5071822;28;20430;-64
2023/04/25 07:03:10;;;;;;;0.50;0.50;;;;;;;16.55;93.88;94585.75;5072147;28;20465;-64
2023/04/25 07:05:39;;;;;;;3.90;0.80;;;;;;;16.41;92.16;94552.00;5072414;28;20937;-64
2023/04/25 07:08:07;;;;;;;0.40;0.30;;;;;;;16.71;90.20;94582.22;5071350;28;20528;-64
2023/04/25 07:10:37;;;;;;;0.33;0.27;;;;;;;17.33;85.30;94573.41;5071539;28;20532;-64
2023/04/25 07:13:05;;;;;;;0.40;0.30;;;;;;;18.15;84.87;94575.84;5071467;28;20434;-69
2023/04/25 07:15:33;;;;;;;0.40;0.30;;;;;;;18.25;77.74;94579.97;5071402;28;20443;-69
2023/04/25 07:18:01;;;;;;;0.50;0.40;;;;;;;18.63;77.69;94577.75;5045719;28;20449;-72
2023/04/25 07:20:30;;;;;;;0.50;0.50;;;;;;;18.23;76.50;94579.53;5071219;28;21007;-70
2023/04/25 07:22:59;;;;;;;1.30;0.97;;;;;;;18.60;75.38;94573.06;5071605;28;20789;-69
2023/04/25 07:25:27;;;;;;;0.63;0.63;;;;;;;17.67;75.67;94576.53;5071110;28;21017;-67
2023/04/25 07:27:57;;;;;;;0.60;0.60;;;;;;;17.43;78.13;94576.41;5071626;28;20490;-65
2023/04/25 07:30:25;;;;;;;1.10;1.00;;;;;;;17.46;77.87;94573.09;5071546;28;20446;-65
2023/04/25 07:32:53;;;;;;;0.40;0.30;;;;;;;17.24;80.73;94578.81;5071713;28;20447;-65
2023/04/25 07:35:22;;;;;;;0.60;0.30;;;;;;;17.37;79.43;94575.06;5070781;28;20478;-65
2023/04/25 07:37:50;;;;;;;0.40;0.27;;;;;;;17.45;79.13;94568.88;5071377;28;20491;-65
2023/04/25 07:40:19;;;;;;;0.40;0.30;;;;;;;17.68;78.31;94566.63;5071128;28;20534;-68
2023/04/25 07:42:47;;;;;;;0.40;0.23;;;;;;;17.75;78.85;94572.22;5071365;28;20473;-68
2023/04/25 07:45:17;;;;;;;0.70;0.50;;;;;;;17.33;77.81;94560.75;5071165;28;20953;-68
2023/04/25 07:47:45;;;;;;;0.40;0.27;;;;;;;17.59;82.44;94569.38;5071404;28;20488;-68
2023/04/25 07:50:14;;;;;;;0.60;0.50;;;;;;;17.24;79.66;94567.31;5070958;28;20426;-68
2023/04/25 07:52:42;;;;;;;0.70;0.70;;;;;;;17.48;78.50;94564.75;5071165;28;20448;-68
2023/04/25 07:55:11;;;;;;;0.57;0.33;;;;;;;17.48;78.87;94559.38;5071713;28;20429;-68
2023/04/25 07:57:39;;;;;;;0.50;0.40;;;;;;;18.33;76.89;94557.63;5071365;28;20528;-70
2023/04/25 08:00:11;;;;;;;0.70;0.50;;;;;;;19.44;72.53;94542.53;5071502;28;20473;-69
2023/04/25 08:02:40;;;;;;;0.60;0.40;;;;;;;19.45;69.63;94513.75;5071692;28;20491;-70
2023/04/25 08:05:11;;;;;;;0.70;0.70;;;;;;;19.94;69.10;94555.34;5071099;28;20481;-75
2023/04/25 08:07:40;;;;;;;0.97;0.50;;;;;;;19.87;67.53;94555.19;5071922;28;20473;-76
2023/04/25 08:10:09;;;;;;;0.40;0.30;;;;;;;19.89;67.31;94552.13;5071481;28;20480;-75
2023/04/25 08:12:37;;;;;;;0.77;0.77;;;;;;;19.93;67.30;94559.19;5071114;28;20442;-74
2023/04/25 08:15:07;;;;;;;0.40;0.30;;;;;;;19.98;67.04;94555.44;5071392;28;20465;-72
2023/04/25 08:17:35;;;;;;;1.77;1.00;;;;;;;19.35;68.62;94571.44;5070757;28;20529;-71
2023/04/25 08:20:06;;;;;;;0.50;0.50;;;;;;;18.66;69.20;94569.03;5071270;28;20548;-70
2023/04/25 08:22:34;;;;;;;0.57;0.57;;;;;;;18.02;71.13;94578.84;5070776;28;20502;-68
2023/04/25 08:25:03;;;;;;;0.60;0.60;;;;;;;17.95;73.73;94579.41;5070371;28;20477;-67
2023/04/25 08:27:31;;;;;;;1.57;0.43;;;;;;;18.11;75.31;94574.16;5070243;28;20438;-67
2023/04/25 08:30:00;;;;;;;4.13;1.13;;;;;;;18.37;75.71;94566.56;5070480;28;20434;-70
2023/04/25 08:32:28;;;;;;;1.43;1.07;;;;;;;17.59;76.97;94572.06;5070529;28;20469;-70
2023/04/25 08:34:58;;;;;;;0.57;0.57;;;;;;;18.35;75.31;94566.13;5071053;28;20441;-67
2023/04/25 08:37:27;;;;;;;4.50;0.97;;;;;;;19.16;73.50;94568.59;5071198;28;20881;-65
2023/04/25 08:39:56;;;;;;;0.57;0.37;;;;;;;21.03;66.76;94567.91;5070570;28;20560;-63
2023/04/25 08:42:25;;;;;;;1.03;1.03;;;;;;;21.20;63.25;94558.69;5070796;28;20468;-63
2023/04/25 08:44:55;;;;;;;0.50;0.40;;;;;;;21.71;63.61;94508.03;5069058;28;20438;-62
2023/04/25 08:47:24;;;;;;;0.50;0.50;;;;;;;21.79;61.51;94524.00;5060178;28;20536;-61
2023/04/25 08:49:54;;;;;;;1.13;0.90;;;;;;;23.01;56.44;94563.38;5070440;28;21107;-61
2023/04/25 08:52:24;;;;;;;1.93;0.90;;;;;;;23.40;55.64;94551.19;5071161;28;20446;-61
2023/04/25 08:54:56;;;;;;;1.20;1.20;;;;;;;23.53;54.97;94544.34;5070516;28;20487;-61
2023/04/25 08:57:25;;;;;;;0.50;0.33;;;;;;;23.62;53.97;94544.84;5070799;28;20521;-62
2023/04/25 08:59:54;;;;;;;0.50;0.50;;;;;;;22.92;55.27;94536.59;5070498;28;20504;-61
2023/04/25 09:02:23;;;;;;;0.60;0.60;;;;;;;22.38;53.15;94533.47;5072143;28;20441;-61
2023/04/25 09:04:51;;;;;;;0.40;0.37;;;;;;;22.67;54.07;94532.78;5073869;28;20437;-61
2023/04/25 09:07:21;;;;;;;0.70;0.63;;;;;;;22.94;54.29;94520.03;5074158;28;21014;-60
2023/04/25 09:09:50;;;;;;;1.27;1.13;;;;;;;22.53;51.95;94525.25;5073718;28;20997;-61
2023/04/25 09:12:20;;;;;;;2.63;0.40;;;;;;;23.51;54.91;94454.69;5073751;28;20437;-60
2023/04/25 09:15:05;;;;;;;0.60;0.30;;;;;;;23.81;49.41;94523.00;5048346;28;20441;-61
2023/04/25 09:17:33;;;;;;;0.40;0.40;;;;;;;24.13;49.39;94511.75;5073941;28;20529;-60
2023/04/25 09:20:09;;;;;;;0.80;0.80;;;;;;;24.87;46.70;94512.28;5073520;28;20477;-59
2023/04/25 09:22:38;;;;;;;0.50;0.40;;;;;;;24.29;49.37;94509.53;5073750;28;20471;-60
2023/04/25 09:25:10;;;;;;;0.40;0.40;;;;;;;24.19;48.60;94511.00;5073291;28;20470;-60
2023/04/25 09:27:51;;;;;;;0.83;0.83;;;;;;;23.58;47.06;94492.63;5073297;28;20866;-60
2023/04/25 09:30:20;;;;;;;0.40;0.30;;;;;;;24.61;46.96;94500.50;5073525;28;20967;-61
2023/04/25 09:32:48;;;;;;;0.50;0.30;;;;;;;25.88;47.66;94487.47;5074097;28;20442;-61
2023/04/25 09:35:26;;;;;;;0.40;0.30;;;;;;;25.15;43.83;94395.81;5073451;28;20536;-61
2023/04/25 09:37:55;;;;;;;0.40;0.40;;;;;;;26.37;43.09;94484.03;5073839;28;20443;-61
2023/04/25 09:40:23;;;;;;;0.37;0.30;;;;;;;26.85;43.74;94480.88;5073458;28;20722;-61
2023/04/25 09:42:53;;;;;;;0.57;0.53;;;;;;;25.12;44.49;94475.25;5073211;28;20465;-61
2023/04/25 09:45:22;;;;;;;0.50;0.30;;;;;;;25.76;45.12;94471.56;5073162;28;20449;-61
2023/04/25 09:47:51;;;;;;;0.60;0.50;;;;;;;27.26;45.04;94465.56;5073339;28;20757;-61
2023/04/25 09:50:20;;;;;;;0.87;0.53;;;;;;;26.83;44.58;94464.19;5073190;28;20806;-61
2023/04/25 09:53:04;;;;;;;2.10;2.00;;;;;;;26.81;42.20;94458.38;5073433;28;20471;-57
2023/04/25 09:55:33;;;;;;;0.40;0.30;;;;;;;25.10;43.21;94453.13;5073785;28;20812;-58
2023/04/25 09:58:07;;;;;;;0.70;0.70;;;;;;;24.03;45.48;94459.03;5059669;28;20474;-59
2023/04/25 10:00:35;;;;;;;0.60;0.50;;;;;;;24.21;47.09;94448.38;5073010;28;20472;-60
2023/04/25 10:03:06;;;;;;;0.57;0.30;;;;;;;24.84;45.17;94440.66;5072785;28;20451;-62
2023/04/25 10:05:37;;;;;;;0.40;0.30;;;;;;;23.94;46.04;94445.81;5073406;28;20801;-62
2023/04/25 10:08:08;;;;;;;0.40;0.30;;;;;;;24.99;45.07;94428.72;5072511;28;20442;-60
2023/04/25 10:10:38;;;;;;;1.53;1.43;;;;;;;25.15;44.23;94434.56;5072987;28;20514;-60
2023/04/25 10:13:08;;;;;;;0.40;0.30;;;;;;;26.16;41.52;94434.38;5072068;28;20472;-59
2023/04/25 10:15:37;;;;;;;0.50;0.50;;;;;;;26.41;44.53;94422.28;5072601;28;20525;-59
2023/04/25 10:18:07;;;;;;;0.70;0.47;;;;;;;26.01;42.38;94422.69;5072923;28;20533;-59
2023/04/25 10:20:36;;;;;;;0.50;0.50;;;;;;;25.94;41.85;94416.50;5072060;28;20465;-59
2023/04/25 10:23:12;;;;;;;0.40;0.30;;;;;;;26.94;43.26;94403.13;5072636;28;20454;-59
2023/04/25 10:25:41;;;;;;;0.50;0.50;;;;;;;26.54;39.56;94397.44;5071809;28;20477;-59
2023/04/25 10:28:11;;;;;;;0.40;0.30;;;;;;;26.56;41.19;94395.88;5072298;28;20442;-59
2023/04/25 10:30:58;;;;;;;0.40;0.30;;;;;;;25.65;39.87;94377.72;5072497;28;20445;-64
2023/04/25 10:33:37;;;;;;;0.30;0.30;;;;;;;27.62;38.95;94368.97;5072654;28;20995;-64
2023/04/25 10:36:13;;;;;;;1.17;0.40;;;;;;;27.00;38.11;94368.94;5049845;28;20484;-62
2023/04/25 10:38:43;;;;;;;0.37;0.30;;;;;;;26.50;37.47;94318.63;5071809;28;20517;-64
2023/04/25 10:41:12;;;;;;;0.40;0.30;;;;;;;26.13;39.46;94321.88;5072704;28;20548;-66
2023/04/25 10:43:43;;;;;;;0.40;0.30;;;;;;;26.05;39.95;94352.88;5072293;28;20448;-67
2023/04/25 10:46:16;;;;;;;0.40;0.30;;;;;;;25.95;38.59;94347.47;5072461;28;20452;-68
2023/04/25 10:48:51;;;;;;;0.50;0.40;;;;;;;26.11;38.80;94340.44;5072090;28;20456;-67
2023/04/25 10:51:22;;;;;;;0.43;0.40;;;;;;;24.45;42.75;94336.69;5071864;28;20528;-67
2023/04/25 10:54:01;;;;;;;0.40;0.30;;;;;;;23.56;41.76;94351.56;5072128;28;20498;-69
2023/04/25 10:56:31;;;;;;;0.37;0.30;;;;;;;23.65;40.56;94349.34;5071524;28;20480;-69
2023/04/25 10:59:12;;;;;;;0.40;0.37;;;;;;;23.43;41.32;94349.53;5071951;28;20857;-70
2023/04/25 11:01:41;;;;;;;0.40;0.30;;;;;;;24.39;40.69;94347.09;5072049;28;20473;-73
2023/04/25 11:04:24;;;;;;;0.40;0.30;;;;;;;25.16;39.70;94348.56;5072509;28;20441;-70
2023/04/25 11:07:06;;;;;;;0.50;0.40;;;;;;;24.33;42.46;94353.28;5071816;28;20930;-71
2023/04/25 11:09:36;;;;;;;0.30;0.20;;;;;;;25.87;41.29;94338.56;5071897;28;20976;-72
2023/04/25 11:12:08;;;;;;;0.40;0.30;;;;;;;26.59;39.74;94339.97;5071647;28;20529;-68
2023/04/25 11:14:38;;;;;;;0.43;0.30;;;;;;;27.08;37.48;94342.47;5071426;28;20476;-69
2023/04/25 11:17:11;;;;;;;0.30;0.30;;;;;;;25.87;37.01;94349.41;5071669;28;20448;-69
2023/04/25 11:19:40;;;;;;;0.53;0.40;;;;;;;23.86;39.28;94341.34;5045647;28;20448;-70
2023/04/25 11:22:08;;;;;;;0.30;0.20;;;;;;;23.88;38.63;94344.44;5070976;28;21036;-71
2023/04/25 11:24:37;;;;;;;0.40;0.30;;;;;;;23.49;39.07;94340.69;5070850;28;20500;-72
2023/04/25 11:27:06;;;;;;;0.40;0.30;;;;;;;23.09;41.40;94302.84;5072189;28;20445;-72
2023/04/25 11:29:37;;;;;;;0.30;0.20;;;;;;;23.06;40.12;94342.22;5071842;28;20480;-73
2023/04/25 11:32:05;;;;;;;0.70;0.70;;;;;;;21.78;41.99;94354.44;5071404;28;20437;-68
2023/04/25 11:34:34;;;;;;;0.40;0.30;;;;;;;20.99;43.99;94356.94;5070914;28;20445;-64
2023/04/25 11:37:03;;;;;;;0.30;0.20;;;;;;;19.72;47.99;94370.44;5070174;28;20787;-65
2023/04/25 11:39:32;;;;;;;0.50;0.50;;;;;;;18.58;53.87;94390.13;5071268;28;20905;-60